createdAt,value
2019-05-16T00:05:25.442Z,99775.00
2019-05-16T00:16:02.269Z,99802.00
2019-05-16T00:26:43.445Z,99824.00
2019-05-16T00:37:28.652Z,99827.00
2019-05-16T00:48:09.024Z,99861.00
2019-05-16T00:58:49.150Z,99894.00
2019-05-16T01:09:30.924Z,99907.00
2019-05-16T01:20:15.548Z,99909.00
2019-05-16T01:30:58.028Z,99916.00
2019-05-16T01:41:42.700Z,99909.00
2019-05-16T01:52:25.808Z,99883.00
2019-05-16T02:03:08.269Z,99887.00
2019-05-16T02:13:50.473Z,99861.00
2019-05-16T02:24:33.790Z,99842.00
2019-05-16T02:35:16.557Z,99829.00
2019-05-16T02:46:01.822Z,99811.00
2019-05-16T02:56:45.694Z,99780.00
2019-05-16T03:07:39.517Z,99762.00
2019-05-16T03:18:11.436Z,99738.00
2019-05-16T03:28:52.570Z,99713.00
2019-05-16T03:39:35.431Z,99703.00
2019-05-16T03:50:21.884Z,99687.00
2019-05-16T04:01:02.459Z,99641.00
2019-05-16T04:11:43.517Z,99601.00
2019-05-16T04:22:25.494Z,99579.00
2019-05-16T04:33:10.958Z,99547.00
2019-05-16T04:43:52.905Z,99529.00
2019-05-16T04:54:41.507Z,99504.00
2019-05-16T05:05:21.490Z,99395.00
2019-05-16T05:16:02.634Z,98816.00
2019-05-16T05:26:50.812Z,98230.00
2019-05-16T05:37:36.974Z,97853.00
2019-05-16T05:48:16.421Z,97895.00
2019-05-16T05:59:01.540Z,97704.00
2019-05-16T06:09:52.894Z,98255.00
2019-05-16T06:20:20.611Z,98435.00
2019-05-16T06:31:06.832Z,97859.00
2019-05-16T06:41:50.672Z,98455.00
2019-05-16T06:52:26.649Z,98605.00
2019-05-16T07:03:10.199Z,98608.00
2019-05-16T07:13:51.728Z,98823.00
2019-05-16T07:24:23.644Z,98894.00
2019-05-16T07:35:09.745Z,98821.00
2019-05-16T07:45:51.204Z,98774.00
2019-05-16T07:56:31.092Z,98717.00
2019-05-16T08:07:11.645Z,98732.00
2019-05-16T08:17:51.744Z,98717.00
2019-05-16T08:39:15.046Z,98690.00
2019-05-16T08:49:54.753Z,98688.00
2019-05-16T09:00:41.685Z,98635.00
2019-05-16T09:10:20.788Z,98708.00
2019-05-16T09:11:35.773Z,98582.00
2019-05-16T09:22:07.352Z,98560.00
2019-05-16T09:32:47.602Z,98529.00
2019-05-16T09:43:27.991Z,98489.00
2019-05-16T09:54:10.593Z,98352.00
2019-05-16T10:04:57.892Z,98322.00
2019-05-16T10:15:30.302Z,98293.00
2019-05-16T10:26:13.071Z,98228.00
2019-05-16T10:36:53.903Z,98279.00
2019-05-16T10:47:38.078Z,98219.00
2019-05-16T10:58:35.602Z,98093.00
2019-05-16T11:09:02.989Z,98070.00
2019-05-16T11:19:38.851Z,98050.00
2019-05-16T11:30:18.196Z,98161.00
2019-05-16T11:41:02.331Z,98070.00
2019-05-16T11:51:47.174Z,98000.00
2019-05-16T12:02:29.902Z,97871.00
2019-05-16T12:13:24.063Z,97863.00
2019-05-16T12:23:51.881Z,97894.00
2019-05-16T12:34:37.507Z,97684.00
2019-05-16T12:45:13.206Z,97585.00
2019-05-16T12:55:47.738Z,97483.00
2019-05-16T13:06:29.073Z,97284.00
2019-05-16T13:17:12.044Z,97409.00
2019-05-16T13:27:57.665Z,97490.00
2019-05-16T13:38:37.366Z,97142.00
2019-05-16T13:49:21.306Z,96987.00
2019-05-16T13:59:59.686Z,97044.00
2019-05-16T14:10:47.975Z,97049.00
2019-05-16T14:21:18.139Z,96911.00
2019-05-16T14:31:57.945Z,97062.00
2019-05-16T14:42:40.211Z,97132.00
2019-05-16T14:53:20.034Z,97285.00
2019-05-16T15:04:02.046Z,97385.00
2019-05-16T15:14:40.990Z,97475.00
2019-05-16T15:25:17.673Z,97492.00
2019-05-16T15:35:58.009Z,97642.00
2019-05-16T15:46:40.887Z,97714.00
2019-05-16T15:57:19.030Z,97772.00
2019-05-16T16:08:03.771Z,97747.00
2019-05-16T16:18:47.079Z,97735.00
2019-05-16T16:29:33.169Z,97756.00
2019-05-16T16:40:14.064Z,97857.00
2019-05-16T16:50:57.587Z,97916.00
2019-05-16T17:01:38.411Z,97940.00
2019-05-16T17:12:21.203Z,98003.00
2019-05-16T17:23:01.066Z,98044.00
2019-05-16T17:33:44.226Z,98093.00
2019-05-16T17:44:23.257Z,98086.00
2019-05-16T17:55:01.336Z,98143.00
2019-05-16T18:05:42.381Z,98129.00
2019-05-16T18:16:25.644Z,98166.00
2019-05-16T18:27:06.747Z,98140.00
2019-05-16T18:37:47.436Z,98144.00
2019-05-16T18:48:27.549Z,98153.00
2019-05-16T18:59:06.424Z,98140.00
2019-05-16T19:09:47.030Z,98153.00
2019-05-16T19:20:22.005Z,98192.00
2019-05-16T19:31:00.194Z,98172.00
2019-05-16T19:41:34.137Z,98190.00
2019-05-16T19:52:12.241Z,98198.00
2019-05-16T20:02:54.136Z,98202.00
2019-05-16T20:13:36.718Z,98195.00
2019-05-16T20:24:16.578Z,98237.00
2019-05-16T20:34:52.145Z,98269.00
2019-05-16T20:45:31.845Z,98276.00
2019-05-16T20:56:09.426Z,98309.00
2019-05-16T21:06:56.745Z,98304.00
2019-05-16T21:17:23.123Z,98341.00
2019-05-16T21:28:03.156Z,98310.00
2019-05-16T21:38:42.431Z,98298.00
2019-05-16T21:49:19.316Z,98298.00
2019-05-16T21:59:58.141Z,98262.00
2019-05-16T22:10:38.224Z,98269.00
2019-05-16T22:21:16.693Z,98248.00
2019-05-16T22:32:00.460Z,98275.00
2019-05-16T22:42:42.366Z,98371.00
2019-05-16T22:53:24.089Z,98358.00
2019-05-16T23:04:07.279Z,98354.00
2019-05-16T23:14:48.241Z,98347.00
2019-05-16T23:25:33.182Z,98345.00
2019-05-16T23:36:18.274Z,98352.00
2019-05-16T23:47:00.251Z,98352.00
2019-05-16T23:57:43.466Z,98335.00
